sensor_id;sensor_type;location;lat;lon;timestamp;P1;durP1;ratioP1;P2;durP2;ratioP2
6354;SDS011;3210;48.708;9.030;2023-05-10T00:01:34;3.03;;;0.90;;
6354;SDS011;3210;48.708;9.030;2023-05-10T00:04:01;1.53;;;0.60;;
6354;SDS011;3210;48.708;9.030;2023-05-10T00:06:29;1.00;;;0.40;;
6354;SDS011;3210;48.708;9.030;2023-05-10T00:08:56;0.60;;;0.30;;
6354;SDS011;3210;48.708;9.030;2023-05-10T00:11:23;2.40;;;0.50;;
6354;SDS011;3210;48.708;9.030;2023-05-10T00:13:50;0.60;;;0.30;;
6354;SDS011;3210;48.708;9.030;2023-05-10T00:16:19;2.77;;;0.50;;
6354;SDS011;3210;48.708;9.030;2023-05-10T00:18:46;0.60;;;0.30;;
6354;SDS011;3210;48.708;9.030;2023-05-10T00:21:13;2.60;;;0.40;;
6354;SDS011;3210;48.708;9.030;2023-05-10T00:23:41;2.80;;;0.40;;
6354;SDS011;3210;48.708;9.030;2023-05-10T00:26:08;0.60;;;0.30;;
6354;SDS011;3210;48.708;9.030;2023-05-10T00:28:35;0.60;;;0.30;;
6354;SDS011;3210;48.708;9.030;2023-05-10T00:31:02;0.60;;;0.30;;
6354;SDS011;3210;48.708;9.030;2023-05-10T00:33:29;4.30;;;0.30;;
6354;SDS011;3210;48.708;9.030;2023-05-10T00:35:55;0.50;;;0.30;;
6354;SDS011;3210;48.708;9.030;2023-05-10T00:38:22;0.57;;;0.33;;
6354;SDS011;3210;48.708;9.030;2023-05-10T00:40:50;5.13;;;0.60;;
6354;SDS011;3210;48.708;9.030;2023-05-10T00:43:17;3.40;;;0.40;;
6354;SDS011;3210;48.708;9.030;2023-05-10T00:45:44;0.60;;;0.30;;
6354;SDS011;3210;48.708;9.030;2023-05-10T00:48:11;0.80;;;0.47;;
6354;SDS011;3210;48.708;9.030;2023-05-10T00:50:39;0.60;;;0.40;;
6354;SDS011;3210;48.708;9.030;2023-05-10T00:53:06;0.60;;;0.40;;
6354;SDS011;3210;48.708;9.030;2023-05-10T00:55:33;2.10;;;0.43;;
6354;SDS011;3210;48.708;9.030;2023-05-10T00:58:01;0.50;;;0.30;;
6354;SDS011;3210;48.708;9.030;2023-05-10T01:00:28;0.70;;;0.40;;
6354;SDS011;3210;48.708;9.030;2023-05-10T01:02:55;0.60;;;0.30;;
6354;SDS011;3210;48.708;9.030;2023-05-10T01:05:22;0.50;;;0.30;;
6354;SDS011;3210;48.708;9.030;2023-05-10T01:07:48;0.60;;;0.40;;
6354;SDS011;3210;48.708;9.030;2023-05-10T01:10:15;0.70;;;0.40;;
6354;SDS011;3210;48.708;9.030;2023-05-10T01:12:43;0.70;;;0.40;;
6354;SDS011;3210;48.708;9.030;2023-05-10T01:15:14;0.70;;;0.40;;
6354;SDS011;3210;48.708;9.030;2023-05-10T01:17:42;0.60;;;0.30;;
6354;SDS011;3210;48.708;9.030;2023-05-10T01:20:11;1.90;;;0.40;;
6354;SDS011;3210;48.708;9.030;2023-05-10T01:23:01;1.63;;;0.40;;
6354;SDS011;3210;48.708;9.030;2023-05-10T01:25:56;0.60;;;0.40;;
6354;SDS011;3210;48.708;9.030;2023-05-10T01:29:06;1.00;;;0.40;;
6354;SDS011;3210;48.708;9.030;2023-05-10T01:34:42;0.97;;;0.30;;
6354;SDS011;3210;48.708;9.030;2023-05-10T01:37:15;0.70;;;0.30;;
6354;SDS011;3210;48.708;9.030;2023-05-10T01:39:48;2.70;;;0.40;;
6354;SDS011;3210;48.708;9.030;2023-05-10T01:42:21;0.60;;;0.30;;
6354;SDS011;3210;48.708;9.030;2023-05-10T01:44:53;5.03;;;0.47;;
6354;SDS011;3210;48.708;9.030;2023-05-10T01:47:26;0.60;;;0.30;;
6354;SDS011;3210;48.708;9.030;2023-05-10T01:50:02;0.97;;;0.40;;
6354;SDS011;3210;48.708;9.030;2023-05-10T01:52:32;0.60;;;0.30;;
6354;SDS011;3210;48.708;9.030;2023-05-10T01:55:02;0.57;;;0.33;;
6354;SDS011;3210;48.708;9.030;2023-05-10T01:57:32;3.03;;;1.27;;
6354;SDS011;3210;48.708;9.030;2023-05-10T02:00:01;0.60;;;0.30;;
6354;SDS011;3210;48.708;9.030;2023-05-10T02:02:30;5.90;;;0.50;;
6354;SDS011;3210;48.708;9.030;2023-05-10T02:05:01;0.60;;;0.30;;
6354;SDS011;3210;48.708;9.030;2023-05-10T02:07:30;2.20;;;0.40;;
6354;SDS011;3210;48.708;9.030;2023-05-10T02:09:59;1.23;;;0.30;;
6354;SDS011;3210;48.708;9.030;2023-05-10T02:12:27;4.10;;;1.23;;
6354;SDS011;3210;48.708;9.030;2023-05-10T02:14:56;1.30;;;0.47;;
6354;SDS011;3210;48.708;9.030;2023-05-10T02:17:25;2.30;;;0.40;;
6354;SDS011;3210;48.708;9.030;2023-05-10T02:19:55;0.60;;;0.40;;
6354;SDS011;3210;48.708;9.030;2023-05-10T02:22:23;0.60;;;0.30;;
6354;SDS011;3210;48.708;9.030;2023-05-10T02:24:51;1.13;;;0.60;;
6354;SDS011;3210;48.708;9.030;2023-05-10T02:27:20;1.27;;;0.53;;
6354;SDS011;3210;48.708;9.030;2023-05-10T02:29:48;0.80;;;0.60;;
6354;SDS011;3210;48.708;9.030;2023-05-10T02:32:16;0.67;;;0.40;;
6354;SDS011;3210;48.708;9.030;2023-05-10T02:34:44;2.20;;;0.57;;
6354;SDS011;3210;48.708;9.030;2023-05-10T02:37:18;0.77;;;0.47;;
6354;SDS011;3210;48.708;9.030;2023-05-10T02:39:46;0.70;;;0.70;;
6354;SDS011;3210;48.708;9.030;2023-05-10T02:42:15;1.33;;;0.43;;
6354;SDS011;3210;48.708;9.030;2023-05-10T02:44:45;0.70;;;0.50;;
6354;SDS011;3210;48.708;9.030;2023-05-10T02:47:13;4.13;;;1.30;;
6354;SDS011;3210;48.708;9.030;2023-05-10T02:49:41;0.87;;;0.70;;
6354;SDS011;3210;48.708;9.030;2023-05-10T02:52:08;0.70;;;0.50;;
6354;SDS011;3210;48.708;9.030;2023-05-10T02:54:39;0.93;;;0.53;;
6354;SDS011;3210;48.708;9.030;2023-05-10T02:57:11;2.70;;;1.07;;
6354;SDS011;3210;48.708;9.030;2023-05-10T02:59:43;0.73;;;0.67;;
6354;SDS011;3210;48.708;9.030;2023-05-10T03:02:10;2.10;;;1.10;;
6354;SDS011;3210;48.708;9.030;2023-05-10T03:04:38;0.70;;;0.50;;
6354;SDS011;3210;48.708;9.030;2023-05-10T03:07:05;0.80;;;0.70;;
6354;SDS011;3210;48.708;9.030;2023-05-10T03:09:32;7.23;;;1.00;;
6354;SDS011;3210;48.708;9.030;2023-05-10T03:12:04;1.70;;;0.77;;
6354;SDS011;3210;48.708;9.030;2023-05-10T03:14:41;2.80;;;0.80;;
6354;SDS011;3210;48.708;9.030;2023-05-10T03:17:15;2.47;;;1.10;;
6354;SDS011;3210;48.708;9.030;2023-05-10T03:19:52;0.70;;;0.53;;
6354;SDS011;3210;48.708;9.030;2023-05-10T03:22:23;0.70;;;0.70;;
6354;SDS011;3210;48.708;9.030;2023-05-10T03:24:53;2.60;;;0.80;;
6354;SDS011;3210;48.708;9.030;2023-05-10T03:27:23;0.77;;;0.60;;
6354;SDS011;3210;48.708;9.030;2023-05-10T03:29:53;0.70;;;0.47;;
6354;SDS011;3210;48.708;9.030;2023-05-10T03:32:20;3.33;;;0.90;;
6354;SDS011;3210;48.708;9.030;2023-05-10T03:34:48;0.80;;;0.60;;
6354;SDS011;3210;48.708;9.030;2023-05-10T03:37:14;1.70;;;0.50;;
6354;SDS011;3210;48.708;9.030;2023-05-10T03:39:41;0.70;;;0.63;;
6354;SDS011;3210;48.708;9.030;2023-05-10T03:42:08;1.07;;;0.60;;
6354;SDS011;3210;48.708;9.030;2023-05-10T03:44:38;3.10;;;0.90;;
6354;SDS011;3210;48.708;9.030;2023-05-10T03:47:05;4.43;;;0.57;;
6354;SDS011;3210;48.708;9.030;2023-05-10T03:49:31;0.80;;;0.63;;
6354;SDS011;3210;48.708;9.030;2023-05-10T03:51:58;0.70;;;0.60;;
6354;SDS011;3210;48.708;9.030;2023-05-10T03:54:25;1.10;;;0.80;;
6354;SDS011;3210;48.708;9.030;2023-05-10T03:56:52;1.30;;;1.00;;
6354;SDS011;3210;48.708;9.030;2023-05-10T03:59:19;2.60;;;0.73;;
6354;SDS011;3210;48.708;9.030;2023-05-10T04:01:47;2.33;;;0.93;;
6354;SDS011;3210;48.708;9.030;2023-05-10T04:04:13;2.60;;;0.57;;
6354;SDS011;3210;48.708;9.030;2023-05-10T04:06:40;6.70;;;0.80;;
6354;SDS011;3210;48.708;9.030;2023-05-10T04:09:07;3.03;;;0.80;;
6354;SDS011;3210;48.708;9.030;2023-05-10T04:11:34;2.37;;;0.83;;
6354;SDS011;3210;48.708;9.030;2023-05-10T04:14:01;0.80;;;0.70;;
6354;SDS011;3210;48.708;9.030;2023-05-10T04:16:27;3.00;;;0.83;;
6354;SDS011;3210;48.708;9.030;2023-05-10T04:18:59;0.90;;;0.60;;
6354;SDS011;3210;48.708;9.030;2023-05-10T04:21:25;4.27;;;0.80;;
6354;SDS011;3210;48.708;9.030;2023-05-10T04:23:52;1.37;;;0.80;;
6354;SDS011;3210;48.708;9.030;2023-05-10T04:26:19;1.03;;;0.90;;
6354;SDS011;3210;48.708;9.030;2023-05-10T04:28:47;0.80;;;0.70;;
6354;SDS011;3210;48.708;9.030;2023-05-10T04:31:13;1.30;;;1.20;;
6354;SDS011;3210;48.708;9.030;2023-05-10T04:33:40;2.30;;;0.77;;
6354;SDS011;3210;48.708;9.030;2023-05-10T04:36:08;1.07;;;0.97;;
6354;SDS011;3210;48.708;9.030;2023-05-10T04:38:35;2.80;;;1.80;;
6354;SDS011;3210;48.708;9.030;2023-05-10T04:41:05;1.33;;;0.83;;
6354;SDS011;3210;48.708;9.030;2023-05-10T04:43:33;1.23;;;1.13;;
6354;SDS011;3210;48.708;9.030;2023-05-10T04:46:00;1.53;;;0.90;;
6354;SDS011;3210;48.708;9.030;2023-05-10T04:48:27;4.17;;;1.00;;
6354;SDS011;3210;48.708;9.030;2023-05-10T04:50:54;1.87;;;1.00;;
6354;SDS011;3210;48.708;9.030;2023-05-10T04:53:22;4.03;;;1.40;;
6354;SDS011;3210;48.708;9.030;2023-05-10T04:55:49;7.10;;;2.10;;
6354;SDS011;3210;48.708;9.030;2023-05-10T04:58:16;4.30;;;0.90;;
6354;SDS011;3210;48.708;9.030;2023-05-10T05:00:43;3.10;;;0.90;;
6354;SDS011;3210;48.708;9.030;2023-05-10T05:03:10;3.70;;;1.30;;
6354;SDS011;3210;48.708;9.030;2023-05-10T05:05:37;2.20;;;1.23;;
6354;SDS011;3210;48.708;9.030;2023-05-10T05:08:03;5.13;;;1.17;;
6354;SDS011;3210;48.708;9.030;2023-05-10T05:10:32;1.23;;;1.10;;
6354;SDS011;3210;48.708;9.030;2023-05-10T05:12:58;5.37;;;2.53;;
6354;SDS011;3210;48.708;9.030;2023-05-10T05:15:25;1.30;;;1.20;;
6354;SDS011;3210;48.708;9.030;2023-05-10T05:17:52;1.50;;;1.30;;
6354;SDS011;3210;48.708;9.030;2023-05-10T05:20:19;2.07;;;1.40;;
6354;SDS011;3210;48.708;9.030;2023-05-10T05:22:46;1.77;;;1.40;;
6354;SDS011;3210;48.708;9.030;2023-05-10T05:25:13;6.60;;;1.43;;
6354;SDS011;3210;48.708;9.030;2023-05-10T05:27:41;1.57;;;1.20;;
6354;SDS011;3210;48.708;9.030;2023-05-10T05:30:08;3.87;;;1.57;;
6354;SDS011;3210;48.708;9.030;2023-05-10T05:32:36;2.47;;;1.70;;
6354;SDS011;3210;48.708;9.030;2023-05-10T05:35:03;1.77;;;1.10;;
6354;SDS011;3210;48.708;9.030;2023-05-10T05:37:30;10.23;;;1.50;;
6354;SDS011;3210;48.708;9.030;2023-05-10T05:39:57;5.20;;;1.43;;
6354;SDS011;3210;48.708;9.030;2023-05-10T05:42:26;1.33;;;1.23;;
6354;SDS011;3210;48.708;9.030;2023-05-10T05:44:54;1.63;;;1.53;;
6354;SDS011;3210;48.708;9.030;2023-05-10T05:47:21;3.30;;;1.27;;
6354;SDS011;3210;48.708;9.030;2023-05-10T05:49:47;2.00;;;1.50;;
6354;SDS011;3210;48.708;9.030;2023-05-10T05:52:14;1.57;;;1.30;;
6354;SDS011;3210;48.708;9.030;2023-05-10T05:54:41;1.57;;;1.40;;
6354;SDS011;3210;48.708;9.030;2023-05-10T05:57:08;1.40;;;1.30;;
6354;SDS011;3210;48.708;9.030;2023-05-10T05:59:35;2.27;;;1.17;;
6354;SDS011;3210;48.708;9.030;2023-05-10T06:02:08;2.40;;;1.10;;
6354;SDS011;3210;48.708;9.030;2023-05-10T06:04:35;2.40;;;1.40;;
6354;SDS011;3210;48.708;9.030;2023-05-10T06:07:01;2.00;;;1.10;;
6354;SDS011;3210;48.708;9.030;2023-05-10T06:09:30;2.57;;;1.43;;
6354;SDS011;3210;48.708;9.030;2023-05-10T06:11:57;1.40;;;1.30;;
6354;SDS011;3210;48.708;9.030;2023-05-10T06:14:24;3.53;;;1.50;;
6354;SDS011;3210;48.708;9.030;2023-05-10T06:16:51;7.33;;;1.20;;
6354;SDS011;3210;48.708;9.030;2023-05-10T06:19:19;1.30;;;1.00;;
6354;SDS011;3210;48.708;9.030;2023-05-10T06:21:46;1.90;;;1.10;;
6354;SDS011;3210;48.708;9.030;2023-05-10T06:24:13;1.20;;;1.07;;
6354;SDS011;3210;48.708;9.030;2023-05-10T06:26:39;2.23;;;1.37;;
6354;SDS011;3210;48.708;9.030;2023-05-10T06:29:06;4.60;;;1.60;;
6354;SDS011;3210;48.708;9.030;2023-05-10T06:31:33;2.10;;;1.50;;
6354;SDS011;3210;48.708;9.030;2023-05-10T06:34:00;1.60;;;1.50;;
6354;SDS011;3210;48.708;9.030;2023-05-10T06:36:28;2.63;;;1.80;;
6354;SDS011;3210;48.708;9.030;2023-05-10T06:38:55;1.77;;;1.50;;
6354;SDS011;3210;48.708;9.030;2023-05-10T06:41:22;8.87;;;2.30;;
6354;SDS011;3210;48.708;9.030;2023-05-10T06:43:50;2.70;;;1.80;;
6354;SDS011;3210;48.708;9.030;2023-05-10T06:46:17;5.53;;;1.37;;
6354;SDS011;3210;48.708;9.030;2023-05-10T06:48:44;2.40;;;2.00;;
6354;SDS011;3210;48.708;9.030;2023-05-10T06:51:11;1.47;;;1.37;;
6354;SDS011;3210;48.708;9.030;2023-05-10T06:53:39;3.10;;;1.67;;
6354;SDS011;3210;48.708;9.030;2023-05-10T06:56:06;3.63;;;1.70;;
6354;SDS011;3210;48.708;9.030;2023-05-10T06:58:33;7.00;;;1.80;;
6354;SDS011;3210;48.708;9.030;2023-05-10T07:01:02;2.10;;;1.20;;
6354;SDS011;3210;48.708;9.030;2023-05-10T07:03:30;1.70;;;1.53;;
6354;SDS011;3210;48.708;9.030;2023-05-10T07:05:59;1.10;;;1.00;;
6354;SDS011;3210;48.708;9.030;2023-05-10T07:08:29;1.83;;;1.73;;
6354;SDS011;3210;48.708;9.030;2023-05-10T07:11:00;4.10;;;1.27;;
6354;SDS011;3210;48.708;9.030;2023-05-10T07:13:28;2.80;;;1.10;;
6354;SDS011;3210;48.708;9.030;2023-05-10T07:15:56;3.13;;;1.50;;
6354;SDS011;3210;48.708;9.030;2023-05-10T07:18:23;4.00;;;1.20;;
6354;SDS011;3210;48.708;9.030;2023-05-10T07:20:50;1.00;;;0.77;;
6354;SDS011;3210;48.708;9.030;2023-05-10T07:23:17;3.50;;;0.70;;
6354;SDS011;3210;48.708;9.030;2023-05-10T07:25:44;2.40;;;1.20;;
6354;SDS011;3210;48.708;9.030;2023-05-10T07:28:13;2.90;;;0.80;;
6354;SDS011;3210;48.708;9.030;2023-05-10T07:30:41;1.73;;;0.80;;
6354;SDS011;3210;48.708;9.030;2023-05-10T07:33:09;1.83;;;1.67;;
6354;SDS011;3210;48.708;9.030;2023-05-10T07:35:36;3.27;;;1.03;;
6354;SDS011;3210;48.708;9.030;2023-05-10T07:38:03;5.30;;;1.13;;
6354;SDS011;3210;48.708;9.030;2023-05-10T07:40:30;4.50;;;0.90;;
6354;SDS011;3210;48.708;9.030;2023-05-10T07:42:56;2.57;;;1.40;;
6354;SDS011;3210;48.708;9.030;2023-05-10T07:45:26;0.80;;;0.80;;
6354;SDS011;3210;48.708;9.030;2023-05-10T07:47:52;1.13;;;1.00;;
6354;SDS011;3210;48.708;9.030;2023-05-10T07:50:19;1.87;;;1.07;;
6354;SDS011;3210;48.708;9.030;2023-05-10T07:52:46;4.97;;;0.80;;
6354;SDS011;3210;48.708;9.030;2023-05-10T07:55:13;0.87;;;0.63;;
6354;SDS011;3210;48.708;9.030;2023-05-10T07:57:41;1.53;;;0.97;;
6354;SDS011;3210;48.708;9.030;2023-05-10T08:00:08;1.33;;;0.90;;
6354;SDS011;3210;48.708;9.030;2023-05-10T08:02:39;2.93;;;0.80;;
6354;SDS011;3210;48.708;9.030;2023-05-10T08:05:07;1.97;;;0.90;;
6354;SDS011;3210;48.708;9.030;2023-05-10T08:07:34;0.70;;;0.60;;
6354;SDS011;3210;48.708;9.030;2023-05-10T08:10:01;0.80;;;0.50;;
6354;SDS011;3210;48.708;9.030;2023-05-10T08:12:28;1.97;;;0.70;;
6354;SDS011;3210;48.708;9.030;2023-05-10T08:14:55;2.03;;;0.80;;
6354;SDS011;3210;48.708;9.030;2023-05-10T08:17:22;1.23;;;0.60;;
6354;SDS011;3210;48.708;9.030;2023-05-10T08:19:50;3.57;;;0.83;;
6354;SDS011;3210;48.708;9.030;2023-05-10T08:22:17;0.90;;;0.70;;
6354;SDS011;3210;48.708;9.030;2023-05-10T08:24:43;1.17;;;0.80;;
6354;SDS011;3210;48.708;9.030;2023-05-10T08:27:10;1.00;;;0.80;;
6354;SDS011;3210;48.708;9.030;2023-05-10T08:29:37;2.97;;;1.00;;
6354;SDS011;3210;48.708;9.030;2023-05-10T08:32:04;1.43;;;0.70;;
6354;SDS011;3210;48.708;9.030;2023-05-10T08:34:31;1.00;;;0.77;;
6354;SDS011;3210;48.708;9.030;2023-05-10T08:36:59;0.90;;;0.67;;
6354;SDS011;3210;48.708;9.030;2023-05-10T08:39:26;3.00;;;2.10;;
6354;SDS011;3210;48.708;9.030;2023-05-10T08:41:53;1.10;;;0.70;;
6354;SDS011;3210;48.708;9.030;2023-05-10T08:44:24;0.97;;;0.70;;
6354;SDS011;3210;48.708;9.030;2023-05-10T08:46:51;6.60;;;0.50;;
6354;SDS011;3210;48.708;9.030;2023-05-10T08:49:20;0.70;;;0.50;;
6354;SDS011;3210;48.708;9.030;2023-05-10T08:51:50;1.30;;;0.43;;
6354;SDS011;3210;48.708;9.030;2023-05-10T08:54:22;0.90;;;0.43;;
6354;SDS011;3210;48.708;9.030;2023-05-10T08:56:49;1.00;;;0.87;;
6354;SDS011;3210;48.708;9.030;2023-05-10T08:59:16;2.07;;;0.90;;
6354;SDS011;3210;48.708;9.030;2023-05-10T09:01:43;5.43;;;0.83;;
6354;SDS011;3210;48.708;9.030;2023-05-10T09:04:12;1.43;;;0.50;;
6354;SDS011;3210;48.708;9.030;2023-05-10T09:06:39;4.40;;;0.40;;
6354;SDS011;3210;48.708;9.030;2023-05-10T09:09:06;5.07;;;1.07;;
6354;SDS011;3210;48.708;9.030;2023-05-10T09:11:34;4.93;;;1.30;;
6354;SDS011;3210;48.708;9.030;2023-05-10T09:14:01;7.90;;;0.90;;
6354;SDS011;3210;48.708;9.030;2023-05-10T09:16:28;7.53;;;0.50;;
6354;SDS011;3210;48.708;9.030;2023-05-10T09:18:55;2.10;;;0.30;;
6354;SDS011;3210;48.708;9.030;2023-05-10T09:21:22;4.97;;;0.60;;
6354;SDS011;3210;48.708;9.030;2023-05-10T09:23:49;2.07;;;0.80;;
6354;SDS011;3210;48.708;9.030;2023-05-10T09:26:16;1.03;;;0.40;;
6354;SDS011;3210;48.708;9.030;2023-05-10T09:28:52;3.00;;;0.63;;
6354;SDS011;3210;48.708;9.030;2023-05-10T09:31:20;1.57;;;0.40;;
6354;SDS011;3210;48.708;9.030;2023-05-10T09:33:47;1.57;;;0.50;;
6354;SDS011;3210;48.708;9.030;2023-05-10T09:36:15;2.50;;;0.50;;
6354;SDS011;3210;48.708;9.030;2023-05-10T09:38:46;1.07;;;0.40;;
6354;SDS011;3210;48.708;9.030;2023-05-10T09:41:17;2.70;;;0.70;;
6354;SDS011;3210;48.708;9.030;2023-05-10T09:43:45;2.13;;;0.70;;
6354;SDS011;3210;48.708;9.030;2023-05-10T09:46:14;0.60;;;0.30;;
6354;SDS011;3210;48.708;9.030;2023-05-10T09:48:42;0.80;;;0.40;;
6354;SDS011;3210;48.708;9.030;2023-05-10T09:51:10;0.60;;;0.30;;
6354;SDS011;3210;48.708;9.030;2023-05-10T09:53:44;1.00;;;0.50;;
6354;SDS011;3210;48.708;9.030;2023-05-10T09:56:11;1.43;;;0.40;;
6354;SDS011;3210;48.708;9.030;2023-05-10T09:58:39;1.43;;;0.57;;
6354;SDS011;3210;48.708;9.030;2023-05-10T10:01:09;0.60;;;0.30;;
6354;SDS011;3210;48.708;9.030;2023-05-10T10:03:42;0.87;;;0.53;;
6354;SDS011;3210;48.708;9.030;2023-05-10T10:06:09;0.60;;;0.30;;
6354;SDS011;3210;48.708;9.030;2023-05-10T10:08:36;1.27;;;0.50;;
6354;SDS011;3210;48.708;9.030;2023-05-10T10:11:03;0.67;;;0.40;;
6354;SDS011;3210;48.708;9.030;2023-05-10T10:13:30;0.70;;;0.47;;
6354;SDS011;3210;48.708;9.030;2023-05-10T10:15:57;2.60;;;0.50;;
6354;SDS011;3210;48.708;9.030;2023-05-10T10:18:24;1.13;;;0.67;;
6354;SDS011;3210;48.708;9.030;2023-05-10T10:20:55;2.33;;;0.40;;
6354;SDS011;3210;48.708;9.030;2023-05-10T10:23:23;4.07;;;0.30;;
6354;SDS011;3210;48.708;9.030;2023-05-10T10:25:49;1.90;;;0.87;;
6354;SDS011;3210;48.708;9.030;2023-05-10T10:28:21;4.40;;;0.77;;
6354;SDS011;3210;48.708;9.030;2023-05-10T10:30:52;0.60;;;0.30;;
6354;SDS011;3210;48.708;9.030;2023-05-10T10:33:29;0.60;;;0.40;;
6354;SDS011;3210;48.708;9.030;2023-05-10T10:36:06;1.40;;;0.60;;
6354;SDS011;3210;48.708;9.030;2023-05-10T10:38:37;1.50;;;1.07;;
6354;SDS011;3210;48.708;9.030;2023-05-10T10:41:27;0.60;;;0.40;;
6354;SDS011;3210;48.708;9.030;2023-05-10T10:44:22;1.10;;;0.37;;
6354;SDS011;3210;48.708;9.030;2023-05-10T10:46:59;1.00;;;0.80;;
6354;SDS011;3210;48.708;9.030;2023-05-10T10:49:27;0.70;;;0.60;;
6354;SDS011;3210;48.708;9.030;2023-05-10T10:52:20;2.13;;;0.50;;
6354;SDS011;3210;48.708;9.030;2023-05-10T10:54:52;7.33;;;0.50;;
6354;SDS011;3210;48.708;9.030;2023-05-10T10:57:22;1.63;;;0.73;;
6354;SDS011;3210;48.708;9.030;2023-05-10T10:59:51;10.70;;;0.83;;
6354;SDS011;3210;48.708;9.030;2023-05-10T11:08:15;0.70;;;0.40;;
6354;SDS011;3210;48.708;9.030;2023-05-10T11:10:54;9.73;;;0.60;;
6354;SDS011;3210;48.708;9.030;2023-05-10T11:13:32;0.80;;;0.40;;
6354;SDS011;3210;48.708;9.030;2023-05-10T11:16:09;2.67;;;0.40;;
6354;SDS011;3210;48.708;9.030;2023-05-10T11:18:40;0.80;;;0.37;;
6354;SDS011;3210;48.708;9.030;2023-05-10T11:21:18;1.00;;;0.50;;
6354;SDS011;3210;48.708;9.030;2023-05-10T11:23:50;0.70;;;0.43;;
6354;SDS011;3210;48.708;9.030;2023-05-10T11:26:21;0.70;;;0.43;;
6354;SDS011;3210;48.708;9.030;2023-05-10T11:28:51;1.53;;;0.40;;
6354;SDS011;3210;48.708;9.030;2023-05-10T11:31:19;1.07;;;0.80;;
6354;SDS011;3210;48.708;9.030;2023-05-10T11:33:46;3.50;;;0.60;;
6354;SDS011;3210;48.708;9.030;2023-05-10T11:36:15;3.90;;;0.57;;
6354;SDS011;3210;48.708;9.030;2023-05-10T11:38:43;1.10;;;0.70;;
6354;SDS011;3210;48.708;9.030;2023-05-10T11:41:11;1.47;;;0.50;;
6354;SDS011;3210;48.708;9.030;2023-05-10T11:43:39;1.00;;;0.50;;
6354;SDS011;3210;48.708;9.030;2023-05-10T11:46:06;1.00;;;0.40;;
6354;SDS011;3210;48.708;9.030;2023-05-10T11:48:35;1.10;;;0.50;;
6354;SDS011;3210;48.708;9.030;2023-05-10T11:51:02;1.60;;;0.60;;
6354;SDS011;3210;48.708;9.030;2023-05-10T11:53:30;3.13;;;0.50;;
6354;SDS011;3210;48.708;9.030;2023-05-10T11:56:02;2.40;;;0.80;;
6354;SDS011;3210;48.708;9.030;2023-05-10T11:58:31;1.83;;;0.60;;
6354;SDS011;3210;48.708;9.030;2023-05-10T12:00:59;2.60;;;0.57;;
6354;SDS011;3210;48.708;9.030;2023-05-10T12:03:26;2.20;;;1.10;;
6354;SDS011;3210;48.708;9.030;2023-05-10T12:05:53;2.03;;;0.77;;
6354;SDS011;3210;48.708;9.030;2023-05-10T12:08:21;1.10;;;0.80;;
6354;SDS011;3210;48.708;9.030;2023-05-10T12:10:49;1.37;;;0.87;;
6354;SDS011;3210;48.708;9.030;2023-05-10T12:13:16;3.90;;;1.00;;
6354;SDS011;3210;48.708;9.030;2023-05-10T12:15:44;1.00;;;0.70;;
6354;SDS011;3210;48.708;9.030;2023-05-10T12:18:12;2.10;;;1.23;;
6354;SDS011;3210;48.708;9.030;2023-05-10T12:20:40;1.67;;;1.00;;
6354;SDS011;3210;48.708;9.030;2023-05-10T12:23:08;0.90;;;0.40;;
6354;SDS011;3210;48.708;9.030;2023-05-10T12:25:36;3.90;;;1.03;;
6354;SDS011;3210;48.708;9.030;2023-05-10T12:28:04;2.03;;;0.70;;
6354;SDS011;3210;48.708;9.030;2023-05-10T12:30:32;1.00;;;0.50;;
6354;SDS011;3210;48.708;9.030;2023-05-10T12:33:02;5.20;;;1.20;;
6354;SDS011;3210;48.708;9.030;2023-05-10T12:35:33;1.90;;;0.40;;
6354;SDS011;3210;48.708;9.030;2023-05-10T12:38:22;2.20;;;0.70;;
6354;SDS011;3210;48.708;9.030;2023-05-10T12:40:51;0.73;;;0.40;;
6354;SDS011;3210;48.708;9.030;2023-05-10T12:43:17;4.10;;;0.70;;
6354;SDS011;3210;48.708;9.030;2023-05-10T12:45:44;1.67;;;0.70;;
6354;SDS011;3210;48.708;9.030;2023-05-10T12:48:15;1.47;;;0.67;;
6354;SDS011;3210;48.708;9.030;2023-05-10T12:50:42;3.07;;;0.80;;
6354;SDS011;3210;48.708;9.030;2023-05-10T12:53:09;1.77;;;0.63;;
6354;SDS011;3210;48.708;9.030;2023-05-10T12:55:35;1.10;;;0.60;;
6354;SDS011;3210;48.708;9.030;2023-05-10T12:58:02;1.40;;;0.60;;
6354;SDS011;3210;48.708;9.030;2023-05-10T13:00:29;1.43;;;0.67;;
6354;SDS011;3210;48.708;9.030;2023-05-10T13:02:56;1.57;;;0.70;;
6354;SDS011;3210;48.708;9.030;2023-05-10T13:05:24;2.50;;;0.63;;
6354;SDS011;3210;48.708;9.030;2023-05-10T13:07:51;2.13;;;1.20;;
6354;SDS011;3210;48.708;9.030;2023-05-10T13:10:18;1.50;;;0.80;;
6354;SDS011;3210;48.708;9.030;2023-05-10T13:12:44;0.80;;;0.53;;
6354;SDS011;3210;48.708;9.030;2023-05-10T13:15:11;0.87;;;0.53;;
6354;SDS011;3210;48.708;9.030;2023-05-10T13:17:38;2.30;;;0.70;;
6354;SDS011;3210;48.708;9.030;2023-05-10T13:20:06;3.70;;;0.73;;
6354;SDS011;3210;48.708;9.030;2023-05-10T13:22:34;2.70;;;1.00;;
6354;SDS011;3210;48.708;9.030;2023-05-10T13:25:01;1.77;;;0.70;;
6354;SDS011;3210;48.708;9.030;2023-05-10T13:27:28;1.20;;;0.70;;
6354;SDS011;3210;48.708;9.030;2023-05-10T13:29:55;2.07;;;0.57;;
6354;SDS011;3210;48.708;9.030;2023-05-10T13:32:21;1.37;;;0.70;;
6354;SDS011;3210;48.708;9.030;2023-05-10T13:34:48;2.97;;;0.50;;
6354;SDS011;3210;48.708;9.030;2023-05-10T13:37:15;5.93;;;0.90;;
6354;SDS011;3210;48.708;9.030;2023-05-10T13:39:44;3.43;;;1.10;;
6354;SDS011;3210;48.708;9.030;2023-05-10T13:42:11;3.97;;;1.00;;
6354;SDS011;3210;48.708;9.030;2023-05-10T13:44:38;1.60;;;0.80;;
6354;SDS011;3210;48.708;9.030;2023-05-10T13:47:05;1.33;;;0.80;;
6354;SDS011;3210;48.708;9.030;2023-05-10T13:49:32;2.20;;;0.70;;
6354;SDS011;3210;48.708;9.030;2023-05-10T13:51:59;4.17;;;0.70;;
6354;SDS011;3210;48.708;9.030;2023-05-10T13:54:30;3.10;;;0.63;;
6354;SDS011;3210;48.708;9.030;2023-05-10T13:56:59;6.63;;;0.70;;
6354;SDS011;3210;48.708;9.030;2023-05-10T13:59:25;0.90;;;0.70;;
6354;SDS011;3210;48.708;9.030;2023-05-10T14:01:52;3.03;;;0.70;;
6354;SDS011;3210;48.708;9.030;2023-05-10T14:04:19;1.40;;;0.60;;
6354;SDS011;3210;48.708;9.030;2023-05-10T14:06:46;1.10;;;0.70;;
6354;SDS011;3210;48.708;9.030;2023-05-10T14:09:13;1.87;;;0.90;;
6354;SDS011;3210;48.708;9.030;2023-05-10T14:11:39;1.17;;;0.70;;
6354;SDS011;3210;48.708;9.030;2023-05-10T14:14:09;7.33;;;0.70;;
6354;SDS011;3210;48.708;9.030;2023-05-10T14:16:36;0.77;;;0.50;;
6354;SDS011;3210;48.708;9.030;2023-05-10T14:19:03;2.27;;;0.77;;
6354;SDS011;3210;48.708;9.030;2023-05-10T14:21:30;2.47;;;0.70;;
6354;SDS011;3210;48.708;9.030;2023-05-10T14:23:56;3.80;;;0.73;;
6354;SDS011;3210;48.708;9.030;2023-05-10T14:26:23;1.00;;;0.70;;
6354;SDS011;3210;48.708;9.030;2023-05-10T14:28:51;3.33;;;0.50;;
6354;SDS011;3210;48.708;9.030;2023-05-10T14:31:19;1.23;;;0.50;;
6354;SDS011;3210;48.708;9.030;2023-05-10T14:33:46;0.87;;;0.60;;
6354;SDS011;3210;48.708;9.030;2023-05-10T14:36:13;1.63;;;0.57;;
6354;SDS011;3210;48.708;9.030;2023-05-10T14:38:39;1.53;;;1.17;;
6354;SDS011;3210;48.708;9.030;2023-05-10T14:41:06;5.00;;;0.80;;
6354;SDS011;3210;48.708;9.030;2023-05-10T14:43:33;1.23;;;1.00;;
6354;SDS011;3210;48.708;9.030;2023-05-10T14:46:01;4.37;;;0.50;;
6354;SDS011;3210;48.708;9.030;2023-05-10T14:48:29;14.47;;;0.73;;
6354;SDS011;3210;48.708;9.030;2023-05-10T14:50:56;2.83;;;0.60;;
6354;SDS011;3210;48.708;9.030;2023-05-10T14:53:23;2.23;;;0.60;;
6354;SDS011;3210;48.708;9.030;2023-05-10T14:55:50;2.10;;;0.60;;
6354;SDS011;3210;48.708;9.030;2023-05-10T14:58:17;2.07;;;0.60;;
6354;SDS011;3210;48.708;9.030;2023-05-10T15:00:44;2.30;;;0.60;;
6354;SDS011;3210;48.708;9.030;2023-05-10T15:03:11;1.47;;;0.80;;
6354;SDS011;3210;48.708;9.030;2023-05-10T15:05:39;3.03;;;0.60;;
6354;SDS011;3210;48.708;9.030;2023-05-10T15:08:06;3.23;;;0.70;;
6354;SDS011;3210;48.708;9.030;2023-05-10T15:10:34;4.20;;;0.80;;
6354;SDS011;3210;48.708;9.030;2023-05-10T15:13:02;7.00;;;0.50;;
6354;SDS011;3210;48.708;9.030;2023-05-10T15:15:29;1.33;;;0.50;;
6354;SDS011;3210;48.708;9.030;2023-05-10T15:17:56;1.63;;;0.70;;
6354;SDS011;3210;48.708;9.030;2023-05-10T15:20:23;3.30;;;0.70;;
6354;SDS011;3210;48.708;9.030;2023-05-10T15:22:51;8.07;;;0.87;;
6354;SDS011;3210;48.708;9.030;2023-05-10T15:25:18;1.30;;;0.57;;
6354;SDS011;3210;48.708;9.030;2023-05-10T15:27:45;1.50;;;0.60;;
6354;SDS011;3210;48.708;9.030;2023-05-10T15:30:12;0.80;;;0.40;;
6354;SDS011;3210;48.708;9.030;2023-05-10T15:32:39;0.70;;;0.40;;